sensor_id;sensor_type;location;lat;lon;timestamp;P1;durP1;ratioP1;P2;durP2;ratioP2
57441;SDS011;43284;47.042;15.498;2022-09-01T00:02:07;7.72;;;3.78;;
57441;SDS011;43284;47.042;15.498;2022-09-01T00:04:35;5.72;;;3.40;;
57441;SDS011;43284;47.042;15.498;2022-09-01T00:07:05;7.32;;;4.00;;
57441;SDS011;43284;47.042;15.498;2022-09-01T00:09:33;6.13;;;3.60;;
57441;SDS011;43284;47.042;15.498;2022-09-01T00:12:00;5.60;;;3.78;;
57441;SDS011;43284;47.042;15.498;2022-09-01T00:14:30;5.70;;;3.88;;
57441;SDS011;43284;47.042;15.498;2022-09-01T00:16:59;6.07;;;3.65;;
57441;SDS011;43284;47.042;15.498;2022-09-01T00:19:31;6.32;;;3.60;;
57441;SDS011;43284;47.042;15.498;2022-09-01T00:22:00;5.32;;;4.03;;
57441;SDS011;43284;47.042;15.498;2022-09-01T00:24:29;6.57;;;4.05;;
57441;SDS011;43284;47.042;15.498;2022-09-01T00:26:56;6.10;;;3.67;;
57441;SDS011;43284;47.042;15.498;2022-09-01T00:29:24;5.90;;;4.25;;
57441;SDS011;43284;47.042;15.498;2022-09-01T00:31:52;5.28;;;3.63;;
57441;SDS011;43284;47.042;15.498;2022-09-01T00:34:19;5.90;;;4.00;;
57441;SDS011;43284;47.042;15.498;2022-09-01T00:36:47;6.15;;;4.28;;
57441;SDS011;43284;47.042;15.498;2022-09-01T00:39:15;7.10;;;4.03;;
57441;SDS011;43284;47.042;15.498;2022-09-01T00:41:42;5.38;;;3.38;;
57441;SDS011;43284;47.042;15.498;2022-09-01T00:44:13;10.60;;;3.88;;
57441;SDS011;43284;47.042;15.498;2022-09-01T00:46:44;6.25;;;4.07;;
57441;SDS011;43284;47.042;15.498;2022-09-01T00:49:18;7.78;;;3.88;;
57441;SDS011;43284;47.042;15.498;2022-09-01T00:52:00;6.03;;;3.85;;
57441;SDS011;43284;47.042;15.498;2022-09-01T00:54:46;5.28;;;3.45;;
57441;SDS011;43284;47.042;15.498;2022-09-01T00:57:18;6.50;;;4.22;;
57441;SDS011;43284;47.042;15.498;2022-09-01T00:59:46;5.95;;;4.38;;
57441;SDS011;43284;47.042;15.498;2022-09-01T01:02:22;5.60;;;3.42;;
57441;SDS011;43284;47.042;15.498;2022-09-01T01:04:51;7.00;;;4.05;;
57441;SDS011;43284;47.042;15.498;2022-09-01T01:07:20;5.95;;;3.92;;
57441;SDS011;43284;47.042;15.498;2022-09-01T01:09:48;5.85;;;4.07;;
57441;SDS011;43284;47.042;15.498;2022-09-01T01:12:16;5.93;;;3.90;;
57441;SDS011;43284;47.042;15.498;2022-09-01T01:14:44;4.93;;;3.53;;
57441;SDS011;43284;47.042;15.498;2022-09-01T01:17:15;6.53;;;3.42;;
57441;SDS011;43284;47.042;15.498;2022-09-01T01:19:56;4.90;;;3.22;;
57441;SDS011;43284;47.042;15.498;2022-09-01T01:25:42;6.55;;;3.17;;
57441;SDS011;43284;47.042;15.498;2022-09-01T01:28:20;7.18;;;3.30;;
57441;SDS011;43284;47.042;15.498;2022-09-01T01:31:00;4.70;;;3.00;;
57441;SDS011;43284;47.042;15.498;2022-09-01T01:33:44;5.43;;;3.20;;
57441;SDS011;43284;47.042;15.498;2022-09-01T01:36:25;4.80;;;3.22;;
57441;SDS011;43284;47.042;15.498;2022-09-01T01:38:58;5.97;;;3.60;;
57441;SDS011;43284;47.042;15.498;2022-09-01T01:41:29;4.72;;;3.60;;
57441;SDS011;43284;47.042;15.498;2022-09-01T01:43:58;4.72;;;3.53;;
57441;SDS011;43284;47.042;15.498;2022-09-01T01:46:29;6.07;;;3.90;;
57441;SDS011;43284;47.042;15.498;2022-09-01T01:48:58;4.10;;;3.20;;
57441;SDS011;43284;47.042;15.498;2022-09-01T01:51:27;5.53;;;4.00;;
57441;SDS011;43284;47.042;15.498;2022-09-01T01:53:58;5.20;;;3.78;;
57441;SDS011;43284;47.042;15.498;2022-09-01T01:56:31;7.00;;;4.40;;
57441;SDS011;43284;47.042;15.498;2022-09-01T01:59:00;6.15;;;4.07;;
57441;SDS011;43284;47.042;15.498;2022-09-01T02:01:28;6.82;;;4.63;;
57441;SDS011;43284;47.042;15.498;2022-09-01T02:03:57;6.72;;;4.53;;
57441;SDS011;43284;47.042;15.498;2022-09-01T02:06:25;6.43;;;4.05;;
57441;SDS011;43284;47.042;15.498;2022-09-01T02:08:55;6.88;;;4.45;;
57441;SDS011;43284;47.042;15.498;2022-09-01T02:11:24;5.40;;;4.05;;
57441;SDS011;43284;47.042;15.498;2022-09-01T02:13:52;5.80;;;4.22;;
57441;SDS011;43284;47.042;15.498;2022-09-01T02:16:25;5.05;;;3.53;;
57441;SDS011;43284;47.042;15.498;2022-09-01T02:18:54;5.85;;;4.00;;
57441;SDS011;43284;47.042;15.498;2022-09-01T02:21:22;7.65;;;4.78;;
57441;SDS011;43284;47.042;15.498;2022-09-01T02:23:53;6.55;;;4.00;;
57441;SDS011;43284;47.042;15.498;2022-09-01T02:26:32;5.72;;;3.75;;
57441;SDS011;43284;47.042;15.498;2022-09-01T02:29:04;4.43;;;3.40;;
57441;SDS011;43284;47.042;15.498;2022-09-01T02:31:34;6.28;;;4.10;;
57441;SDS011;43284;47.042;15.498;2022-09-01T02:34:07;6.22;;;3.90;;
57441;SDS011;43284;47.042;15.498;2022-09-01T02:36:43;7.80;;;4.85;;
57441;SDS011;43284;47.042;15.498;2022-09-01T02:39:18;6.00;;;4.00;;
57441;SDS011;43284;47.042;15.498;2022-09-01T02:41:49;6.25;;;4.28;;
57441;SDS011;43284;47.042;15.498;2022-09-01T02:44:16;6.07;;;4.07;;
57441;SDS011;43284;47.042;15.498;2022-09-01T02:46:48;6.78;;;4.43;;
57441;SDS011;43284;47.042;15.498;2022-09-01T02:49:19;6.47;;;4.15;;
57441;SDS011;43284;47.042;15.498;2022-09-01T02:51:53;6.95;;;4.43;;
57441;SDS011;43284;47.042;15.498;2022-09-01T02:54:24;5.78;;;3.88;;
57441;SDS011;43284;47.042;15.498;2022-09-01T02:56:52;5.90;;;4.07;;
57441;SDS011;43284;47.042;15.498;2022-09-01T02:59:21;8.43;;;5.38;;
57441;SDS011;43284;47.042;15.498;2022-09-01T03:01:52;7.40;;;4.57;;
57441;SDS011;43284;47.042;15.498;2022-09-01T03:04:22;6.13;;;4.03;;
57441;SDS011;43284;47.042;15.498;2022-09-01T03:06:49;5.72;;;3.92;;
57441;SDS011;43284;47.042;15.498;2022-09-01T03:09:20;7.05;;;4.28;;
57441;SDS011;43284;47.042;15.498;2022-09-01T03:11:48;5.55;;;3.90;;
57441;SDS011;43284;47.042;15.498;2022-09-01T03:14:17;5.75;;;4.05;;
57441;SDS011;43284;47.042;15.498;2022-09-01T03:16:45;7.18;;;4.38;;
57441;SDS011;43284;47.042;15.498;2022-09-01T03:19:14;7.80;;;4.50;;
57441;SDS011;43284;47.042;15.498;2022-09-01T03:21:42;7.40;;;3.90;;
57441;SDS011;43284;47.042;15.498;2022-09-01T03:24:12;6.90;;;4.45;;
57441;SDS011;43284;47.042;15.498;2022-09-01T03:26:41;7.05;;;4.80;;
57441;SDS011;43284;47.042;15.498;2022-09-01T03:29:10;7.80;;;5.22;;
57441;SDS011;43284;47.042;15.498;2022-09-01T03:31:37;6.72;;;4.60;;
57441;SDS011;43284;47.042;15.498;2022-09-01T03:34:04;8.25;;;4.32;;
57441;SDS011;43284;47.042;15.498;2022-09-01T03:36:36;7.47;;;5.13;;
57441;SDS011;43284;47.042;15.498;2022-09-01T03:39:04;5.75;;;4.47;;
57441;SDS011;43284;47.042;15.498;2022-09-01T03:41:35;7.55;;;4.97;;
57441;SDS011;43284;47.042;15.498;2022-09-01T03:44:03;7.85;;;5.05;;
57441;SDS011;43284;47.042;15.498;2022-09-01T03:46:30;6.93;;;4.72;;
57441;SDS011;43284;47.042;15.498;2022-09-01T03:48:58;7.97;;;4.35;;
57441;SDS011;43284;47.042;15.498;2022-09-01T03:53:58;5.65;;;3.97;;
57441;SDS011;43284;47.042;15.498;2022-09-01T03:56:26;6.60;;;4.30;;
57441;SDS011;43284;47.042;15.498;2022-09-01T03:58:55;7.40;;;4.75;;
57441;SDS011;43284;47.042;15.498;2022-09-01T04:01:25;8.18;;;4.75;;
57441;SDS011;43284;47.042;15.498;2022-09-01T04:03:53;7.15;;;4.85;;
57441;SDS011;43284;47.042;15.498;2022-09-01T04:06:21;8.90;;;5.38;;
57441;SDS011;43284;47.042;15.498;2022-09-01T04:08:49;8.55;;;5.25;;
57441;SDS011;43284;47.042;15.498;2022-09-01T04:11:27;7.40;;;5.30;;
57441;SDS011;43284;47.042;15.498;2022-09-01T04:13:56;8.18;;;5.78;;
57441;SDS011;43284;47.042;15.498;2022-09-01T04:16:24;8.80;;;5.45;;
57441;SDS011;43284;47.042;15.498;2022-09-01T04:19:12;6.82;;;5.38;;
57441;SDS011;43284;47.042;15.498;2022-09-01T04:21:55;7.97;;;4.88;;
57441;SDS011;43284;47.042;15.498;2022-09-01T04:24:29;7.15;;;4.90;;
57441;SDS011;43284;47.042;15.498;2022-09-01T04:26:58;6.97;;;5.30;;
57441;SDS011;43284;47.042;15.498;2022-09-01T04:29:27;9.00;;;5.18;;
57441;SDS011;43284;47.042;15.498;2022-09-01T04:31:57;6.90;;;5.50;;
57441;SDS011;43284;47.042;15.498;2022-09-01T04:34:29;6.85;;;5.05;;
57441;SDS011;43284;47.042;15.498;2022-09-01T04:37:05;8.98;;;5.85;;
57441;SDS011;43284;47.042;15.498;2022-09-01T04:39:35;7.80;;;5.20;;
57441;SDS011;43284;47.042;15.498;2022-09-01T04:42:04;7.40;;;5.25;;
57441;SDS011;43284;47.042;15.498;2022-09-01T04:44:34;8.25;;;5.45;;
57441;SDS011;43284;47.042;15.498;2022-09-01T04:47:01;7.70;;;5.10;;
57441;SDS011;43284;47.042;15.498;2022-09-01T04:49:28;10.05;;;5.13;;
57441;SDS011;43284;47.042;15.498;2022-09-01T04:51:58;6.47;;;4.53;;
57441;SDS011;43284;47.042;15.498;2022-09-01T04:54:26;6.47;;;4.18;;
57441;SDS011;43284;47.042;15.498;2022-09-01T04:56:53;7.25;;;4.38;;
57441;SDS011;43284;47.042;15.498;2022-09-01T04:59:21;6.38;;;4.80;;
57441;SDS011;43284;47.042;15.498;2022-09-01T05:01:49;6.82;;;4.53;;
57441;SDS011;43284;47.042;15.498;2022-09-01T05:04:24;6.50;;;4.15;;
57441;SDS011;43284;47.042;15.498;2022-09-01T05:06:54;6.93;;;4.55;;
57441;SDS011;43284;47.042;15.498;2022-09-01T05:09:28;7.57;;;4.93;;
57441;SDS011;43284;47.042;15.498;2022-09-01T05:11:57;9.48;;;4.63;;
57441;SDS011;43284;47.042;15.498;2022-09-01T05:14:44;6.93;;;4.60;;
57441;SDS011;43284;47.042;15.498;2022-09-01T05:17:13;6.65;;;4.05;;
57441;SDS011;43284;47.042;15.498;2022-09-01T05:19:42;5.80;;;4.20;;
57441;SDS011;43284;47.042;15.498;2022-09-01T05:22:12;7.07;;;4.05;;
57441;SDS011;43284;47.042;15.498;2022-09-01T05:24:40;5.00;;;3.78;;
57441;SDS011;43284;47.042;15.498;2022-09-01T05:27:08;4.60;;;3.30;;
57441;SDS011;43284;47.042;15.498;2022-09-01T05:29:37;6.15;;;3.95;;
57441;SDS011;43284;47.042;15.498;2022-09-01T05:32:06;6.40;;;3.75;;
57441;SDS011;43284;47.042;15.498;2022-09-01T05:34:38;4.97;;;3.42;;
57441;SDS011;43284;47.042;15.498;2022-09-01T05:37:08;4.70;;;3.70;;
57441;SDS011;43284;47.042;15.498;2022-09-01T05:39:40;4.70;;;3.60;;
57441;SDS011;43284;47.042;15.498;2022-09-01T05:42:07;4.35;;;3.05;;
57441;SDS011;43284;47.042;15.498;2022-09-01T05:44:35;5.05;;;3.30;;
57441;SDS011;43284;47.042;15.498;2022-09-01T05:47:05;4.35;;;2.92;;
57441;SDS011;43284;47.042;15.498;2022-09-01T05:49:33;5.47;;;3.35;;
57441;SDS011;43284;47.042;15.498;2022-09-01T05:52:04;4.15;;;3.60;;
57441;SDS011;43284;47.042;15.498;2022-09-01T05:54:34;3.42;;;2.90;;
57441;SDS011;43284;47.042;15.498;2022-09-01T05:57:01;5.20;;;3.03;;
57441;SDS011;43284;47.042;15.498;2022-09-01T05:59:29;4.68;;;3.15;;
57441;SDS011;43284;47.042;15.498;2022-09-01T06:01:56;5.88;;;3.67;;
57441;SDS011;43284;47.042;15.498;2022-09-01T06:04:26;3.88;;;3.28;;
57441;SDS011;43284;47.042;15.498;2022-09-01T06:06:55;4.38;;;3.50;;
57441;SDS011;43284;47.042;15.498;2022-09-01T06:09:22;5.07;;;3.67;;
57441;SDS011;43284;47.042;15.498;2022-09-01T06:11:51;5.72;;;3.58;;
57441;SDS011;43284;47.042;15.498;2022-09-01T06:14:20;4.60;;;3.55;;
57441;SDS011;43284;47.042;15.498;2022-09-01T06:16:47;4.60;;;3.72;;
57441;SDS011;43284;47.042;15.498;2022-09-01T06:19:16;5.50;;;3.38;;
57441;SDS011;43284;47.042;15.498;2022-09-01T06:21:45;4.25;;;3.53;;
57441;SDS011;43284;47.042;15.498;2022-09-01T06:24:13;4.88;;;3.80;;
57441;SDS011;43284;47.042;15.498;2022-09-01T06:26:41;6.97;;;3.85;;
57441;SDS011;43284;47.042;15.498;2022-09-01T06:29:11;5.72;;;3.30;;
57441;SDS011;43284;47.042;15.498;2022-09-01T06:31:40;2.67;;;2.20;;
57441;SDS011;43284;47.042;15.498;2022-09-01T06:34:08;3.38;;;2.78;;
57441;SDS011;43284;47.042;15.498;2022-09-01T06:36:43;4.90;;;3.13;;
57441;SDS011;43284;47.042;15.498;2022-09-01T06:39:20;2.38;;;2.17;;
57441;SDS011;43284;47.042;15.498;2022-09-01T06:41:47;2.58;;;2.35;;
57441;SDS011;43284;47.042;15.498;2022-09-01T06:44:18;4.20;;;3.00;;
57441;SDS011;43284;47.042;15.498;2022-09-01T06:46:52;3.03;;;2.53;;
57441;SDS011;43284;47.042;15.498;2022-09-01T06:49:21;3.38;;;2.22;;
57441;SDS011;43284;47.042;15.498;2022-09-01T06:52:00;3.05;;;2.75;;
57441;SDS011;43284;47.042;15.498;2022-09-01T06:54:30;3.20;;;2.13;;
57441;SDS011;43284;47.042;15.498;2022-09-01T06:57:00;2.85;;;2.55;;
57441;SDS011;43284;47.042;15.498;2022-09-01T06:59:29;2.33;;;1.95;;
57441;SDS011;43284;47.042;15.498;2022-09-01T07:02:01;3.40;;;2.67;;
57441;SDS011;43284;47.042;15.498;2022-09-01T07:04:29;3.38;;;2.28;;
57441;SDS011;43284;47.042;15.498;2022-09-01T07:07:00;2.85;;;2.38;;
57441;SDS011;43284;47.042;15.498;2022-09-01T07:09:30;2.53;;;2.33;;
57441;SDS011;43284;47.042;15.498;2022-09-01T07:11:58;3.13;;;2.13;;
57441;SDS011;43284;47.042;15.498;2022-09-01T07:14:26;3.78;;;2.40;;
57441;SDS011;43284;47.042;15.498;2022-09-01T07:16:53;2.30;;;1.80;;
57441;SDS011;43284;47.042;15.498;2022-09-01T07:19:23;1.90;;;1.70;;
57441;SDS011;43284;47.042;15.498;2022-09-01T07:21:51;2.78;;;1.67;;
57441;SDS011;43284;47.042;15.498;2022-09-01T07:24:18;2.78;;;2.13;;
57441;SDS011;43284;47.042;15.498;2022-09-01T07:26:46;3.70;;;2.38;;
57441;SDS011;43284;47.042;15.498;2022-09-01T07:29:15;2.75;;;2.03;;
57441;SDS011;43284;47.042;15.498;2022-09-01T07:31:44;2.08;;;1.80;;
57441;SDS011;43284;47.042;15.498;2022-09-01T07:34:12;2.42;;;2.05;;
57441;SDS011;43284;47.042;15.498;2022-09-01T07:36:42;2.15;;;1.80;;
57441;SDS011;43284;47.042;15.498;2022-09-01T07:39:11;2.40;;;1.75;;
57441;SDS011;43284;47.042;15.498;2022-09-01T07:41:39;2.22;;;1.75;;
57441;SDS011;43284;47.042;15.498;2022-09-01T07:44:08;1.73;;;1.48;;
57441;SDS011;43284;47.042;15.498;2022-09-01T07:46:39;2.53;;;1.80;;
57441;SDS011;43284;47.042;15.498;2022-09-01T07:49:07;1.92;;;1.40;;
57441;SDS011;43284;47.042;15.498;2022-09-01T07:51:36;2.42;;;1.50;;
57441;SDS011;43284;47.042;15.498;2022-09-01T07:54:04;2.00;;;1.70;;
57441;SDS011;43284;47.042;15.498;2022-09-01T07:56:31;1.85;;;1.40;;
57441;SDS011;43284;47.042;15.498;2022-09-01T07:58:59;2.30;;;1.60;;
57441;SDS011;43284;47.042;15.498;2022-09-01T08:01:27;1.40;;;1.30;;
57441;SDS011;43284;47.042;15.498;2022-09-01T08:03:55;1.90;;;1.33;;
57441;SDS011;43284;47.042;15.498;2022-09-01T08:06:25;1.80;;;1.52;;
57441;SDS011;43284;47.042;15.498;2022-09-01T08:08:54;2.00;;;1.48;;
57441;SDS011;43284;47.042;15.498;2022-09-01T08:11:24;1.73;;;1.30;;
57441;SDS011;43284;47.042;15.498;2022-09-01T08:13:56;2.08;;;1.70;;
57441;SDS011;43284;47.042;15.498;2022-09-01T08:16:25;1.95;;;1.60;;
57441;SDS011;43284;47.042;15.498;2022-09-01T08:18:54;1.42;;;1.33;;
57441;SDS011;43284;47.042;15.498;2022-09-01T08:21:22;1.65;;;1.52;;
57441;SDS011;43284;47.042;15.498;2022-09-01T08:23:51;2.00;;;1.33;;
57441;SDS011;43284;47.042;15.498;2022-09-01T08:26:22;1.65;;;1.50;;
57441;SDS011;43284;47.042;15.498;2022-09-01T08:28:51;2.33;;;2.13;;
57441;SDS011;43284;47.042;15.498;2022-09-01T08:31:19;1.63;;;1.50;;
57441;SDS011;43284;47.042;15.498;2022-09-01T08:33:48;1.75;;;1.50;;
57441;SDS011;43284;47.042;15.498;2022-09-01T08:36:16;1.90;;;1.80;;
57441;SDS011;43284;47.042;15.498;2022-09-01T08:38:44;1.58;;;1.30;;
57441;SDS011;43284;47.042;15.498;2022-09-01T08:41:24;2.58;;;1.48;;
57441;SDS011;43284;47.042;15.498;2022-09-01T08:46:59;1.67;;;1.55;;
57441;SDS011;43284;47.042;15.498;2022-09-01T08:49:32;2.88;;;1.75;;
57441;SDS011;43284;47.042;15.498;2022-09-01T08:54:58;1.83;;;1.63;;
57441;SDS011;43284;47.042;15.498;2022-09-01T09:00:10;3.17;;;1.45;;
57441;SDS011;43284;47.042;15.498;2022-09-01T09:03:04;2.65;;;2.00;;
57441;SDS011;43284;47.042;15.498;2022-09-01T09:08:16;2.45;;;1.83;;
57441;SDS011;43284;47.042;15.498;2022-09-01T09:11:00;3.55;;;1.92;;
57441;SDS011;43284;47.042;15.498;2022-09-01T09:16:25;2.03;;;1.80;;
57441;SDS011;43284;47.042;15.498;2022-09-01T09:19:16;2.08;;;1.77;;
57441;SDS011;43284;47.042;15.498;2022-09-01T09:22:00;2.30;;;1.97;;
57441;SDS011;43284;47.042;15.498;2022-09-01T09:24:31;2.58;;;1.90;;
57441;SDS011;43284;47.042;15.498;2022-09-01T09:27:15;2.00;;;1.80;;
57441;SDS011;43284;47.042;15.498;2022-09-01T09:29:52;1.42;;;1.30;;
57441;SDS011;43284;47.042;15.498;2022-09-01T09:32:41;2.38;;;2.00;;
57441;SDS011;43284;47.042;15.498;2022-09-01T09:35:25;1.52;;;1.42;;
57441;SDS011;43284;47.042;15.498;2022-09-01T09:41:02;2.53;;;1.55;;
57441;SDS011;43284;47.042;15.498;2022-09-01T09:43:41;1.75;;;1.60;;
57441;SDS011;43284;47.042;15.498;2022-09-01T09:54:29;1.55;;;1.40;;
57441;SDS011;43284;47.042;15.498;2022-09-01T09:59:46;1.65;;;1.27;;
57441;SDS011;43284;47.042;15.498;2022-09-01T10:02:26;1.40;;;1.30;;
57441;SDS011;43284;47.042;15.498;2022-09-01T10:08:02;2.47;;;1.48;;
57441;SDS011;43284;47.042;15.498;2022-09-01T10:10:43;1.83;;;1.63;;
57441;SDS011;43284;47.042;15.498;2022-09-01T10:13:16;1.38;;;1.27;;
57441;SDS011;43284;47.042;15.498;2022-09-01T10:15:46;2.42;;;1.30;;
57441;SDS011;43284;47.042;15.498;2022-09-01T10:18:26;2.08;;;1.45;;
57441;SDS011;43284;47.042;15.498;2022-09-01T10:21:09;2.17;;;1.37;;
57441;SDS011;43284;47.042;15.498;2022-09-01T10:23:41;1.58;;;1.40;;
57441;SDS011;43284;47.042;15.498;2022-09-01T10:26:21;2.40;;;1.50;;
57441;SDS011;43284;47.042;15.498;2022-09-01T10:29:05;1.77;;;1.58;;
57441;SDS011;43284;47.042;15.498;2022-09-01T10:31:39;2.90;;;2.00;;
57441;SDS011;43284;47.042;15.498;2022-09-01T10:34:09;2.05;;;1.75;;
57441;SDS011;43284;47.042;15.498;2022-09-01T10:36:44;1.88;;;1.67;;
57441;SDS011;43284;47.042;15.498;2022-09-01T10:39:16;2.30;;;1.80;;
57441;SDS011;43284;47.042;15.498;2022-09-01T10:41:55;2.00;;;1.80;;
57441;SDS011;43284;47.042;15.498;2022-09-01T10:47:02;1.67;;;1.48;;
57441;SDS011;43284;47.042;15.498;2022-09-01T10:53:04;2.45;;;1.48;;
57441;SDS011;43284;47.042;15.498;2022-09-01T10:55:13;3.00;;;1.85;;
57441;SDS011;43284;47.042;15.498;2022-09-01T11:00:55;1.83;;;1.65;;
57441;SDS011;43284;47.042;15.498;2022-09-01T11:06:03;1.58;;;1.45;;
57441;SDS011;43284;47.042;15.498;2022-09-01T11:11:06;1.42;;;1.33;;
57441;SDS011;43284;47.042;15.498;2022-09-01T11:13:44;3.55;;;2.10;;
57441;SDS011;43284;47.042;15.498;2022-09-01T11:16:31;3.10;;;1.52;;
57441;SDS011;43284;47.042;15.498;2022-09-01T11:27:08;1.75;;;1.65;;
57441;SDS011;43284;47.042;15.498;2022-09-01T11:29:51;2.38;;;1.52;;
57441;SDS011;43284;47.042;15.498;2022-09-01T11:32:33;1.73;;;1.50;;
57441;SDS011;43284;47.042;15.498;2022-09-01T11:35:03;1.40;;;1.30;;
57441;SDS011;43284;47.042;15.498;2022-09-01T11:37:40;1.65;;;1.27;;
57441;SDS011;43284;47.042;15.498;2022-09-01T11:40:08;2.13;;;1.23;;
57441;SDS011;43284;47.042;15.498;2022-09-01T11:42:40;1.65;;;1.45;;
57441;SDS011;43284;47.042;15.498;2022-09-01T11:45:15;4.47;;;1.50;;
57441;SDS011;43284;47.042;15.498;2022-09-01T11:47:51;1.92;;;1.17;;
57441;SDS011;43284;47.042;15.498;2022-09-01T11:50:26;2.15;;;1.20;;
57441;SDS011;43284;47.042;15.498;2022-09-01T11:53:09;2.30;;;1.20;;
57441;SDS011;43284;47.042;15.498;2022-09-01T11:55:47;1.30;;;1.08;;
57441;SDS011;43284;47.042;15.498;2022-09-01T12:00:55;2.15;;;1.10;;
57441;SDS011;43284;47.042;15.498;2022-09-01T12:03:39;1.40;;;1.08;;
57441;SDS011;43284;47.042;15.498;2022-09-01T12:06:08;1.35;;;1.10;;
57441;SDS011;43284;47.042;15.498;2022-09-01T12:08:40;1.50;;;1.25;;
57441;SDS011;43284;47.042;15.498;2022-09-01T12:11:22;1.63;;;1.30;;
57441;SDS011;43284;47.042;15.498;2022-09-01T12:16:28;0.87;;;0.87;;
57441;SDS011;43284;47.042;15.498;2022-09-01T12:18:59;1.63;;;1.35;;
57441;SDS011;43284;47.042;15.498;2022-09-01T12:21:28;1.50;;;1.10;;
57441;SDS011;43284;47.042;15.498;2022-09-01T12:24:14;0.98;;;0.88;;
57441;SDS011;43284;47.042;15.498;2022-09-01T12:26:53;2.13;;;1.13;;
57441;SDS011;43284;47.042;15.498;2022-09-01T12:29:26;1.13;;;1.02;;
57441;SDS011;43284;47.042;15.498;2022-09-01T12:31:55;1.20;;;1.10;;
57441;SDS011;43284;47.042;15.498;2022-09-01T12:34:35;1.17;;;1.00;;
57441;SDS011;43284;47.042;15.498;2022-09-01T12:39:53;1.23;;;0.95;;
57441;SDS011;43284;47.042;15.498;2022-09-01T12:42:30;1.05;;;0.98;;
57441;SDS011;43284;47.042;15.498;2022-09-01T12:45:03;1.30;;;1.20;;
57441;SDS011;43284;47.042;15.498;2022-09-01T12:50:07;1.42;;;1.02;;
57441;SDS011;43284;47.042;15.498;2022-09-01T12:52:46;1.23;;;0.98;;
57441;SDS011;43284;47.042;15.498;2022-09-01T12:55:28;1.17;;;0.95;;
57441;SDS011;43284;47.042;15.498;2022-09-01T12:58:03;1.23;;;0.88;;
57441;SDS011;43284;47.042;15.498;2022-09-01T13:00:32;1.88;;;1.02;;
57441;SDS011;43284;47.042;15.498;2022-09-01T13:03:21;2.03;;;0.70;;
57441;SDS011;43284;47.042;15.498;2022-09-01T13:05:51;4.28;;;1.35;;
57441;SDS011;43284;47.042;15.498;2022-09-01T13:08:21;1.10;;;1.00;;
57441;SDS011;43284;47.042;15.498;2022-09-01T13:11:00;0.80;;;0.80;;
57441;SDS011;43284;47.042;15.498;2022-09-01T13:13:34;0.80;;;0.80;;
57441;SDS011;43284;47.042;15.498;2022-09-01T13:16:01;1.27;;;1.00;;
57441;SDS011;43284;47.042;15.498;2022-09-01T13:18:38;0.85;;;0.82;;
57441;SDS011;43284;47.042;15.498;2022-09-01T13:21:06;0.93;;;0.90;;
57441;SDS011;43284;47.042;15.498;2022-09-01T13:23:34;1.20;;;1.10;;
57441;SDS011;43284;47.042;15.498;2022-09-01T13:26:02;1.02;;;0.93;;
57441;SDS011;43284;47.042;15.498;2022-09-01T13:28:29;0.80;;;0.70;;
57441;SDS011;43284;47.042;15.498;2022-09-01T13:30:59;1.08;;;0.60;;
57441;SDS011;43284;47.042;15.498;2022-09-01T13:33:35;1.00;;;0.93;;
57441;SDS011;43284;47.042;15.498;2022-09-01T13:36:02;2.85;;;0.88;;
57441;SDS011;43284;47.042;15.498;2022-09-01T13:38:31;0.80;;;0.80;;
57441;SDS011;43284;47.042;15.498;2022-09-01T13:40:58;0.93;;;0.77;;
57441;SDS011;43284;47.042;15.498;2022-09-01T13:43:27;1.35;;;0.80;;
57441;SDS011;43284;47.042;15.498;2022-09-01T13:45:56;0.75;;;0.73;;
57441;SDS011;43284;47.042;15.498;2022-09-01T13:48:24;0.82;;;0.60;;
57441;SDS011;43284;47.042;15.498;2022-09-01T13:50:53;1.15;;;0.82;;
57441;SDS011;43284;47.042;15.498;2022-09-01T13:53:20;1.90;;;1.08;;
57441;SDS011;43284;47.042;15.498;2022-09-01T13:55:48;1.42;;;1.02;;
57441;SDS011;43284;47.042;15.498;2022-09-01T13:58:15;0.90;;;0.80;;
57441;SDS011;43284;47.042;15.498;2022-09-01T14:00:44;1.67;;;0.80;;
57441;SDS011;43284;47.042;15.498;2022-09-01T14:03:16;2.92;;;0.95;;
57441;SDS011;43284;47.042;15.498;2022-09-01T14:05:48;1.73;;;1.02;;
57441;SDS011;43284;47.042;15.498;2022-09-01T14:08:16;1.00;;;0.90;;
57441;SDS011;43284;47.042;15.498;2022-09-01T14:10:47;3.42;;;0.90;;
57441;SDS011;43284;47.042;15.498;2022-09-01T14:13:15;6.13;;;1.35;;
57441;SDS011;43284;47.042;15.498;2022-09-01T14:15:45;1.05;;;0.82;;
57441;SDS011;43284;47.042;15.498;2022-09-01T14:18:14;2.08;;;1.05;;
57441;SDS011;43284;47.042;15.498;2022-09-01T14:20:45;1.45;;;0.90;;
57441;SDS011;43284;47.042;15.498;2022-09-01T14:23:15;0.90;;;0.90;;
57441;SDS011;43284;47.042;15.498;2022-09-01T14:25:48;0.98;;;0.80;;
57441;SDS011;43284;47.042;15.498;2022-09-01T14:28:17;1.75;;;1.17;;
57441;SDS011;43284;47.042;15.498;2022-09-01T14:30:46;0.98;;;0.85;;
57441;SDS011;43284;47.042;15.498;2022-09-01T14:33:16;1.13;;;0.93;;
57441;SDS011;43284;47.042;15.498;2022-09-01T14:35:50;1.50;;;1.10;;
57441;SDS011;43284;47.042;15.498;2022-09-01T14:38:18;3.33;;;1.33;;
57441;SDS011;43284;47.042;15.498;2022-09-01T14:40:46;0.80;;;0.80;;
57441;SDS011;43284;47.042;15.498;2022-09-01T14:43:17;1.48;;;0.93;;
57441;SDS011;43284;47.042;15.498;2022-09-01T14:45:45;1.23;;;0.85;;
57441;SDS011;43284;47.042;15.498;2022-09-01T14:48:14;1.00;;;0.70;;
57441;SDS011;43284;47.042;15.498;2022-09-01T14:50:44;2.65;;;0.98;;
57441;SDS011;43284;47.042;15.498;2022-09-01T14:53:13;2.35;;;1.38;;
57441;SDS011;43284;47.042;15.498;2022-09-01T14:55:41;0.88;;;0.88;;
57441;SDS011;43284;47.042;15.498;2022-09-01T14:58:09;0.80;;;0.80;;
57441;SDS011;43284;47.042;15.498;2022-09-01T15:00:37;0.73;;;0.73;;
57441;SDS011;43284;47.042;15.498;2022-09-01T15:03:07;1.85;;;0.90;;
57441;SDS011;43284;47.042;15.498;2022-09-01T15:05:35;1.95;;;1.15;;
57441;SDS011;43284;47.042;15.498;2022-09-01T15:08:03;1.67;;;1.10;;
57441;SDS011;43284;47.042;15.498;2022-09-01T15:10:31;1.02;;;0.85;;
57441;SDS011;43284;47.042;15.498;2022-09-01T15:13:00;0.60;;;0.60;;
57441;SDS011;43284;47.042;15.498;2022-09-01T15:15:28;0.75;;;0.75;;
57441;SDS011;43284;47.042;15.498;2022-09-01T15:17:57;1.33;;;0.90;;
57441;SDS011;43284;47.042;15.498;2022-09-01T15:20:26;1.15;;;0.75;;
57441;SDS011;43284;47.042;15.498;2022-09-01T15:23:17;1.67;;;0.90;;
57441;SDS011;43284;47.042;15.498;2022-09-01T15:25:49;0.90;;;0.88;;
57441;SDS011;43284;47.042;15.498;2022-09-01T15:28:20;1.15;;;0.90;;
57441;SDS011;43284;47.042;15.498;2022-09-01T15:30:48;0.98;;;0.82;;
57441;SDS011;43284;47.042;15.498;2022-09-01T15:33:16;0.85;;;0.85;;
57441;SDS011;43284;47.042;15.498;2022-09-01T15:35:44;1.17;;;0.70;;
57441;SDS011;43284;47.042;15.498;2022-09-01T15:38:12;1.58;;;0.95;;
57441;SDS011;43284;47.042;15.498;2022-09-01T15:40:41;2.05;;;1.02;;
57441;SDS011;43284;47.042;15.498;2022-09-01T15:43:09;1.25;;;1.10;;
57441;SDS011;43284;47.042;15.498;2022-09-01T15:45:37;1.42;;;0.95;;
57441;SDS011;43284;47.042;15.498;2022-09-01T15:48:04;1.10;;;1.00;;
57441;SDS011;43284;47.042;15.498;2022-09-01T15:50:32;1.75;;;1.00;;
57441;SDS011;43284;47.042;15.498;2022-09-01T15:53:00;1.10;;;1.00;;
57441;SDS011;43284;47.042;15.498;2022-09-01T15:55:40;2.30;;;1.10;;
57441;SDS011;43284;47.042;15.498;2022-09-01T15:58:13;1.83;;;1.10;;
57441;SDS011;43284;47.042;15.498;2022-09-01T16:00:43;1.75;;;1.20;;
57441;SDS011;43284;47.042;15.498;2022-09-01T16:03:11;1.52;;;1.05;;
57441;SDS011;43284;47.042;15.498;2022-09-01T16:05:38;1.27;;;1.17;;
57441;SDS011;43284;47.042;15.498;2022-09-01T16:08:06;1.95;;;1.23;;